createdAt,value
2022-09-12T00:00:28.317Z,0.00
2022-09-12T00:01:28.324Z,0.00
2022-09-12T00:02:28.311Z,0.00
2022-09-12T00:03:28.458Z,0.00
2022-09-12T00:04:28.261Z,0.00
2022-09-12T00:05:28.259Z,0.00
2022-09-12T00:06:28.236Z,0.00
2022-09-12T00:07:28.233Z,0.00
2022-09-12T00:08:28.211Z,0.00
2022-09-12T00:09:28.468Z,0.00
2022-09-12T00:10:28.176Z,0.00
2022-09-12T00:11:28.176Z,0.00
2022-09-12T00:12:28.170Z,0.00
2022-09-12T00:13:28.137Z,0.00
2022-09-12T00:14:28.126Z,0.00
2022-09-12T00:15:28.272Z,0.00
2022-09-12T00:16:28.122Z,0.00
2022-09-12T00:17:28.081Z,0.00
2022-09-12T00:18:28.075Z,0.00
2022-09-12T00:19:28.084Z,0.00
2022-09-12T00:20:28.058Z,0.00
2022-09-12T00:21:28.140Z,0.00
2022-09-12T00:22:28.024Z,0.00
2022-09-12T00:23:28.004Z,0.00
2022-09-12T00:24:28.008Z,0.00
2022-09-12T00:25:27.980Z,0.00
2022-09-12T00:26:27.956Z,0.00
2022-09-12T00:27:28.126Z,0.00
2022-09-12T00:28:27.933Z,0.00
2022-09-12T00:29:27.943Z,0.00
2022-09-12T00:30:27.903Z,0.00
2022-09-12T00:31:27.978Z,0.00
2022-09-12T00:32:27.876Z,0.00
2022-09-12T00:33:28.113Z,0.00
2022-09-12T00:34:27.853Z,0.00
2022-09-12T00:35:27.843Z,0.00
2022-09-12T00:36:27.819Z,0.00
2022-09-12T00:37:27.808Z,0.00
2022-09-12T00:38:27.803Z,0.00
2022-09-12T00:39:28.141Z,0.00
2022-09-12T00:40:27.776Z,0.00
2022-09-12T00:41:27.758Z,0.00
2022-09-12T00:42:27.738Z,0.00
2022-09-12T00:43:27.728Z,0.00
2022-09-12T00:44:27.709Z,0.00
2022-09-12T00:45:27.920Z,0.00
2022-09-12T00:46:27.690Z,0.00
2022-09-12T00:47:27.686Z,0.00
2022-09-12T00:48:27.663Z,0.00
2022-09-12T00:49:27.654Z,0.00
2022-09-12T00:50:27.625Z,0.00
2022-09-12T00:51:27.794Z,0.00
2022-09-12T00:52:27.603Z,0.00
2022-09-12T00:53:27.586Z,0.00
2022-09-12T00:54:27.584Z,0.00
2022-09-12T00:55:27.557Z,0.00
2022-09-12T00:56:27.558Z,0.00
2022-09-12T00:57:27.656Z,0.00
2022-09-12T00:58:27.504Z,0.00
2022-09-12T00:59:27.703Z,0.00
2022-09-12T01:00:27.485Z,0.00
2022-09-12T01:01:32.198Z,0.00
2022-09-12T01:02:28.640Z,0.00
2022-09-12T01:03:27.456Z,0.00
2022-09-12T01:04:27.456Z,0.00
2022-09-12T01:05:27.425Z,0.00
2022-09-12T01:06:27.473Z,0.00
2022-09-12T01:07:27.386Z,0.00
2022-09-12T01:08:27.530Z,0.00
2022-09-12T01:09:27.417Z,0.00
2022-09-12T01:10:27.360Z,0.00
2022-09-12T01:11:27.346Z,0.00
2022-09-12T01:12:27.319Z,0.00
2022-09-12T01:13:27.311Z,0.00
2022-09-12T01:14:27.452Z,0.00
2022-09-12T01:15:27.279Z,0.00
2022-09-12T01:16:27.304Z,0.00
2022-09-12T01:17:27.260Z,0.00
2022-09-12T01:18:27.231Z,0.00
2022-09-12T01:19:27.230Z,0.00
2022-09-12T01:20:27.548Z,0.00
2022-09-12T01:21:27.206Z,0.00
2022-09-12T01:22:27.179Z,0.00
2022-09-12T01:23:27.173Z,0.00
2022-09-12T01:24:27.277Z,0.00
2022-09-12T01:25:27.140Z,0.00
2022-09-12T01:26:27.254Z,0.00
2022-09-12T01:27:27.123Z,0.00
2022-09-12T01:28:27.103Z,0.00
2022-09-12T01:29:27.154Z,0.00
2022-09-12T01:30:27.066Z,0.00
2022-09-12T01:31:27.157Z,0.00
2022-09-12T01:32:27.245Z,0.00
2022-09-12T01:33:27.071Z,0.00
2022-09-12T01:34:27.031Z,0.00
2022-09-12T01:35:27.003Z,0.00
2022-09-12T01:36:26.991Z,0.00
2022-09-12T01:37:26.978Z,0.00
2022-09-12T01:38:27.289Z,0.00
2022-09-12T01:39:27.461Z,0.00
2022-09-12T01:40:26.987Z,0.00
2022-09-12T01:41:26.958Z,0.00
2022-09-12T01:42:26.947Z,0.00
2022-09-12T01:43:26.937Z,0.00
2022-09-12T01:44:27.124Z,0.00
2022-09-12T01:45:26.911Z,0.00
2022-09-12T01:46:26.852Z,0.00
2022-09-12T01:47:26.829Z,0.00
2022-09-12T01:48:26.826Z,0.00
2022-09-12T01:49:26.800Z,0.00
2022-09-12T01:50:26.934Z,0.00
2022-09-12T01:51:26.781Z,0.00
2022-09-12T01:52:26.771Z,0.00
2022-09-12T01:53:26.757Z,0.00
2022-09-12T01:54:26.743Z,0.00
2022-09-12T01:55:26.740Z,0.00
2022-09-12T01:56:26.963Z,0.00
2022-09-12T01:57:26.697Z,0.00
2022-09-12T01:58:26.667Z,0.00
2022-09-12T01:59:26.841Z,0.00
2022-09-12T02:00:26.649Z,0.00
2022-09-12T02:01:26.671Z,0.00
2022-09-12T02:02:26.953Z,0.00
2022-09-12T02:03:26.614Z,0.00
2022-09-12T02:04:27.713Z,0.00
2022-09-12T02:05:26.586Z,0.00
2022-09-12T02:06:26.578Z,0.00
2022-09-12T02:07:26.577Z,0.00
2022-09-12T02:08:26.714Z,0.00
2022-09-12T02:09:26.525Z,0.00
2022-09-12T02:10:31.753Z,0.00
2022-09-12T02:11:27.493Z,0.00
2022-09-12T02:12:26.498Z,0.00
2022-09-12T02:13:26.463Z,0.00
2022-09-12T02:14:26.625Z,0.00
2022-09-12T02:15:26.434Z,0.00
2022-09-12T02:16:26.449Z,0.00
2022-09-12T02:17:26.422Z,0.00
2022-09-12T02:18:26.401Z,0.00
2022-09-12T02:19:26.390Z,0.00
2022-09-12T02:20:46.806Z,0.00
2022-09-12T02:21:27.360Z,0.00
2022-09-12T02:22:26.357Z,0.00
2022-09-12T02:23:26.333Z,0.00
2022-09-12T02:24:26.331Z,0.00
2022-09-12T02:25:26.290Z,0.00
2022-09-12T02:26:26.608Z,0.00
2022-09-12T02:27:26.273Z,0.00
2022-09-12T02:28:26.257Z,0.00
2022-09-12T02:29:26.245Z,0.00
2022-09-12T02:30:26.250Z,0.00
2022-09-12T02:31:26.214Z,0.00
2022-09-12T02:32:26.372Z,0.00
2022-09-12T02:33:26.185Z,0.00
2022-09-12T02:34:26.177Z,0.00
2022-09-12T02:35:26.186Z,0.00
2022-09-12T02:36:26.139Z,0.00
2022-09-12T02:37:26.139Z,0.00
2022-09-12T02:38:26.229Z,0.00
2022-09-12T02:39:26.132Z,0.00
2022-09-12T02:40:26.133Z,0.00
2022-09-12T02:41:26.101Z,0.00
2022-09-12T02:42:26.079Z,0.00
2022-09-12T02:43:26.057Z,0.00
2022-09-12T02:44:26.229Z,0.00
2022-09-12T02:45:26.108Z,0.00
2022-09-12T02:46:26.096Z,0.00
2022-09-12T02:47:26.015Z,0.00
2022-09-12T02:48:26.003Z,0.00
2022-09-12T02:49:25.995Z,0.00
2022-09-12T02:50:26.185Z,0.00
2022-09-12T02:51:26.004Z,0.00
2022-09-12T02:52:25.962Z,0.00
2022-09-12T02:53:25.974Z,0.00
2022-09-12T02:54:25.897Z,0.00
2022-09-12T02:55:25.873Z,0.00
2022-09-12T02:56:26.111Z,0.00
2022-09-12T02:57:25.860Z,0.00
2022-09-12T02:58:25.843Z,0.00
2022-09-12T02:59:25.826Z,0.00
2022-09-12T03:00:25.837Z,0.00
2022-09-12T03:01:25.965Z,0.00
2022-09-12T03:02:25.851Z,0.00
2022-09-12T03:03:25.802Z,0.00
2022-09-12T03:04:25.761Z,0.00
2022-09-12T03:05:25.778Z,0.00
2022-09-12T03:06:25.750Z,0.00
2022-09-12T03:07:25.930Z,0.00
2022-09-12T03:08:25.727Z,0.00
2022-09-12T03:09:25.688Z,0.00
2022-09-12T03:10:25.679Z,0.00
2022-09-12T03:11:25.658Z,0.00
2022-09-12T03:12:25.649Z,0.00
2022-09-12T03:13:25.936Z,0.00
2022-09-12T03:14:25.647Z,0.00
2022-09-12T03:15:25.668Z,0.00
2022-09-12T03:16:25.771Z,0.00
2022-09-12T03:17:25.594Z,0.00
2022-09-12T03:18:25.576Z,0.00
2022-09-12T03:19:25.637Z,0.00
2022-09-12T03:20:25.550Z,0.00
2022-09-12T03:21:25.520Z,0.00
2022-09-12T03:22:25.518Z,0.00
2022-09-12T03:23:25.490Z,0.00
2022-09-12T03:24:25.475Z,0.00
2022-09-12T03:25:25.598Z,0.00
2022-09-12T03:26:25.917Z,0.00
2022-09-12T03:27:25.448Z,0.00
2022-09-12T03:28:25.421Z,0.00
2022-09-12T03:29:25.426Z,0.00
2022-09-12T03:30:25.419Z,0.00
2022-09-12T03:31:25.520Z,0.00
2022-09-12T03:32:25.408Z,0.00
2022-09-12T03:33:25.358Z,0.00
2022-09-12T03:34:25.332Z,0.00
2022-09-12T03:35:25.335Z,0.00
2022-09-12T03:36:25.318Z,0.00
2022-09-12T03:37:25.377Z,0.00
2022-09-12T03:38:25.320Z,0.00
2022-09-12T03:39:25.279Z,0.00
2022-09-12T03:40:25.255Z,0.00
2022-09-12T03:41:25.239Z,0.00
2022-09-12T03:42:25.240Z,0.00
2022-09-12T03:43:25.431Z,0.00
2022-09-12T03:44:25.330Z,0.00
2022-09-12T03:45:25.263Z,0.00
2022-09-12T03:46:25.226Z,0.00
2022-09-12T03:47:25.226Z,0.00
2022-09-12T03:48:25.236Z,0.00
2022-09-12T03:49:25.275Z,0.00
2022-09-12T03:50:25.188Z,0.00
2022-09-12T03:51:25.124Z,0.00
2022-09-12T03:52:25.160Z,0.00
2022-09-12T03:53:25.078Z,0.00
2022-09-12T03:54:25.062Z,0.00
2022-09-12T03:55:26.157Z,0.00
2022-09-12T03:56:25.078Z,0.00
2022-09-12T03:57:25.047Z,0.00
2022-09-12T03:58:25.192Z,0.00
2022-09-12T03:59:25.004Z,0.00
2022-09-12T04:00:24.993Z,0.00
2022-09-12T04:01:25.208Z,0.00
2022-09-12T04:02:24.998Z,0.00
2022-09-12T04:03:24.943Z,0.00
2022-09-12T04:04:24.992Z,0.00
2022-09-12T04:05:24.915Z,0.00
2022-09-12T04:06:24.903Z,0.00
2022-09-12T04:07:25.006Z,0.00
2022-09-12T04:08:24.899Z,0.00
2022-09-12T04:09:24.847Z,0.00
2022-09-12T04:10:24.839Z,0.00
2022-09-12T04:11:24.830Z,0.00
2022-09-12T04:12:24.808Z,0.00
2022-09-12T04:13:24.949Z,0.00
2022-09-12T04:14:24.840Z,0.00
2022-09-12T04:15:24.781Z,0.00
2022-09-12T04:16:24.784Z,0.00
2022-09-12T04:17:24.766Z,0.00
2022-09-12T04:18:24.729Z,0.00
2022-09-12T04:19:24.813Z,0.00
2022-09-12T04:20:24.811Z,0.00
2022-09-12T04:21:24.718Z,0.00
2022-09-12T04:22:24.690Z,0.00
2022-09-12T04:23:24.656Z,0.00
2022-09-12T04:24:24.750Z,0.00
2022-09-12T04:25:24.828Z,0.00
2022-09-12T04:26:24.643Z,0.00
2022-09-12T04:27:24.648Z,0.00
2022-09-12T04:28:24.608Z,0.00
2022-09-12T04:29:24.582Z,0.00
2022-09-12T04:30:24.628Z,0.00
2022-09-12T04:31:24.703Z,0.00
2022-09-12T04:32:24.690Z,0.00
2022-09-12T04:33:24.506Z,0.00
2022-09-12T04:34:24.501Z,0.00
2022-09-12T04:35:24.492Z,0.00
2022-09-12T04:36:24.481Z,0.00
2022-09-12T04:37:24.544Z,0.00
2022-09-12T04:38:24.478Z,0.00
2022-09-12T04:39:24.444Z,0.00
2022-09-12T04:40:24.428Z,0.00
2022-09-12T04:41:24.411Z,0.00
2022-09-12T04:42:24.399Z,0.00
2022-09-12T04:43:24.527Z,0.00
2022-09-12T04:44:24.409Z,0.00
2022-09-12T04:45:24.351Z,0.00
2022-09-12T04:46:24.340Z,0.00
2022-09-12T04:47:24.323Z,0.00
2022-09-12T04:48:24.313Z,0.00
2022-09-12T04:49:24.452Z,4.00
2022-09-12T04:50:24.319Z,4.00
2022-09-12T04:51:24.273Z,0.00
2022-09-12T04:52:24.299Z,0.00
2022-09-12T04:53:24.276Z,0.00
2022-09-12T04:54:24.248Z,4.00
2022-09-12T04:55:24.299Z,4.00
2022-09-12T04:56:24.255Z,4.00
2022-09-12T04:57:24.233Z,0.00
2022-09-12T04:58:24.229Z,4.00
2022-09-12T04:59:24.148Z,4.00
2022-09-12T05:00:24.184Z,8.00
2022-09-12T05:01:24.397Z,4.00
2022-09-12T05:02:24.473Z,4.00
2022-09-12T05:03:24.102Z,8.00
2022-09-12T05:04:24.083Z,8.00
2022-09-12T05:05:24.071Z,4.00
2022-09-12T05:06:24.067Z,8.00
2022-09-12T05:07:24.133Z,8.00
2022-09-12T05:08:24.063Z,12.00
2022-09-12T05:09:24.013Z,8.00
2022-09-12T05:10:24.007Z,8.00
2022-09-12T05:11:26.576Z,12.00
2022-09-12T05:12:23.977Z,12.00
2022-09-12T05:13:24.108Z,12.00
2022-09-12T05:14:23.991Z,12.00
2022-09-12T05:15:23.933Z,16.00
2022-09-12T05:16:23.962Z,16.00
2022-09-12T05:17:23.891Z,16.00
2022-09-12T05:18:23.884Z,16.00
2022-09-12T05:19:24.051Z,16.00
2022-09-12T05:20:23.901Z,16.00
2022-09-12T05:21:23.884Z,20.00
2022-09-12T05:22:23.839Z,16.00
2022-09-12T05:23:23.832Z,20.00
2022-09-12T05:24:23.817Z,20.00
2022-09-12T05:25:24.017Z,20.00
2022-09-12T05:26:23.807Z,24.00
2022-09-12T05:27:23.766Z,20.00
2022-09-12T05:28:23.748Z,20.00
2022-09-12T05:29:23.745Z,24.00
2022-09-12T05:30:23.765Z,24.00
2022-09-12T05:31:23.810Z,28.00
2022-09-12T05:32:23.756Z,24.00
2022-09-12T05:33:25.175Z,24.00
2022-09-12T05:34:23.659Z,28.00
2022-09-12T05:35:23.654Z,28.00
2022-09-12T05:36:23.637Z,28.00
2022-09-12T05:37:23.789Z,28.00
2022-09-12T05:38:23.814Z,28.00
2022-09-12T05:39:23.597Z,32.00
2022-09-12T05:40:23.583Z,32.00
2022-09-12T05:41:25.145Z,28.00
2022-09-12T05:42:23.562Z,32.00
2022-09-12T05:43:23.702Z,32.00
2022-09-12T05:44:23.567Z,32.00
2022-09-12T05:45:23.567Z,32.00
2022-09-12T05:46:23.515Z,36.00
2022-09-12T05:47:23.482Z,36.00
2022-09-12T05:48:23.476Z,32.00
2022-09-12T05:49:23.638Z,36.00
2022-09-12T05:50:23.482Z,36.00
2022-09-12T05:51:23.447Z,36.00
2022-09-12T05:52:23.418Z,36.00
2022-09-12T05:53:23.393Z,40.00
2022-09-12T05:54:23.410Z,40.00
2022-09-12T05:55:23.460Z,36.00
2022-09-12T05:56:23.406Z,40.00
2022-09-12T05:57:23.350Z,36.00
2022-09-12T05:58:23.336Z,40.00
2022-09-12T05:59:23.320Z,40.00
2022-09-12T06:00:23.333Z,44.00
2022-09-12T06:01:23.436Z,40.00
2022-09-12T06:02:23.354Z,44.00
2022-09-12T06:03:23.264Z,44.00
2022-09-12T06:04:23.264Z,44.00
2022-09-12T06:05:23.292Z,52.00
2022-09-12T06:06:23.569Z,64.00
2022-09-12T06:07:23.705Z,88.00
2022-09-12T06:08:23.235Z,100.00
2022-09-12T06:09:23.202Z,100.00
2022-09-12T06:10:23.170Z,104.00
2022-09-12T06:11:23.152Z,104.00
2022-09-12T06:12:23.158Z,104.00
2022-09-12T06:13:23.215Z,112.00
2022-09-12T06:14:23.283Z,112.00
2022-09-12T06:15:23.102Z,112.00
2022-09-12T06:16:23.128Z,108.00
2022-09-12T06:17:23.071Z,108.00
2022-09-12T06:18:23.052Z,108.00
2022-09-12T06:19:23.129Z,112.00
2022-09-12T06:20:23.073Z,108.00
2022-09-12T06:21:23.011Z,128.00
2022-09-12T06:22:23.006Z,136.00
2022-09-12T06:23:22.984Z,132.00
2022-09-12T06:24:22.965Z,112.00
2022-09-12T06:25:23.114Z,132.00
2022-09-12T06:26:22.986Z,132.00
2022-09-12T06:27:22.932Z,136.00
2022-09-12T06:28:22.911Z,140.00
2022-09-12T06:29:22.904Z,140.00
2022-09-12T06:30:25.486Z,128.00
2022-09-12T06:31:23.248Z,112.00
2022-09-12T06:32:22.890Z,128.00
2022-09-12T06:33:22.845Z,116.00
2022-09-12T06:34:22.831Z,112.00
2022-09-12T06:35:22.818Z,108.00
2022-09-12T06:36:22.787Z,104.00
2022-09-12T06:37:22.886Z,100.00
2022-09-12T06:38:22.818Z,100.00
2022-09-12T06:39:22.759Z,92.00
2022-09-12T06:40:22.780Z,96.00
2022-09-12T06:41:22.727Z,88.00
2022-09-12T06:42:22.710Z,88.00
2022-09-12T06:43:22.811Z,112.00
2022-09-12T06:44:22.775Z,120.00
2022-09-12T06:45:22.672Z,92.00
2022-09-12T06:46:22.746Z,88.00
2022-09-12T06:47:22.675Z,100.00
2022-09-12T06:48:22.653Z,92.00
2022-09-12T06:49:22.846Z,112.00
2022-09-12T06:50:22.650Z,92.00
2022-09-12T06:51:22.586Z,100.00
2022-09-12T06:52:22.576Z,92.00
2022-09-12T06:53:22.569Z,112.00
2022-09-12T06:54:22.552Z,100.00
2022-09-12T06:55:27.111Z,100.00
2022-09-12T06:56:23.561Z,108.00
2022-09-12T06:57:22.510Z,104.00
2022-09-12T06:58:22.485Z,108.00
2022-09-12T06:59:22.485Z,112.00
2022-09-12T07:00:22.466Z,116.00
2022-09-12T07:01:22.601Z,120.00
2022-09-12T07:02:22.610Z,120.00
2022-09-12T07:03:22.452Z,112.00
2022-09-12T07:04:22.424Z,112.00
2022-09-12T07:05:22.404Z,136.00
2022-09-12T07:06:22.401Z,128.00
2022-09-12T07:07:22.372Z,128.00
2022-09-12T07:08:22.487Z,132.00
2022-09-12T07:09:22.360Z,140.00
2022-09-12T07:10:22.497Z,148.00
2022-09-12T07:11:22.337Z,160.00
2022-09-12T07:12:22.327Z,156.00
2022-09-12T07:13:22.320Z,160.00
2022-09-12T07:14:22.495Z,160.00
2022-09-12T07:15:22.257Z,164.00
2022-09-12T07:16:22.293Z,180.00
2022-09-12T07:17:22.245Z,192.00
2022-09-12T07:18:22.218Z,196.00
2022-09-12T07:19:22.207Z,216.00
2022-09-12T07:20:22.307Z,208.00
2022-09-12T07:21:22.178Z,216.00
2022-09-12T07:22:22.184Z,220.00
2022-09-12T07:23:22.153Z,216.00
2022-09-12T07:24:22.138Z,216.00
2022-09-12T07:25:22.124Z,204.00
2022-09-12T07:26:22.370Z,196.00
2022-09-12T07:27:22.085Z,188.00
2022-09-12T07:28:22.063Z,152.00
2022-09-12T07:29:38.138Z,160.00
2022-09-12T07:30:23.082Z,160.00
2022-09-12T07:31:22.058Z,176.00
2022-09-12T07:32:22.153Z,196.00
2022-09-12T07:33:22.014Z,200.00
2022-09-12T07:34:21.989Z,200.00
2022-09-12T07:35:21.980Z,200.00
2022-09-12T07:36:21.960Z,204.00
2022-09-12T07:37:21.948Z,204.00
2022-09-12T07:38:22.064Z,208.00
2022-09-12T07:39:21.924Z,208.00
2022-09-12T07:40:21.902Z,204.00
2022-09-12T07:41:21.903Z,208.00
2022-09-12T07:42:21.872Z,212.00
2022-09-12T07:43:21.896Z,216.00
2022-09-12T07:44:22.149Z,216.00
2022-09-12T07:45:21.837Z,216.00
2022-09-12T07:46:21.833Z,216.00
2022-09-12T07:47:21.823Z,220.00
2022-09-12T07:48:21.805Z,220.00
2022-09-12T07:49:21.952Z,224.00
2022-09-12T07:50:22.057Z,216.00
2022-09-12T07:51:21.843Z,220.00
2022-09-12T07:52:21.735Z,216.00
2022-09-12T07:53:21.715Z,192.00
2022-09-12T07:54:21.704Z,192.00
2022-09-12T07:55:21.695Z,196.00
2022-09-12T07:56:25.033Z,196.00
2022-09-12T07:57:22.664Z,192.00
2022-09-12T07:58:21.653Z,212.00
2022-09-12T07:59:48.398Z,216.00
2022-09-12T08:00:22.671Z,216.00
2022-09-12T08:01:21.644Z,212.00
2022-09-12T08:02:21.941Z,216.00
2022-09-12T08:03:21.580Z,212.00
2022-09-12T08:04:21.584Z,208.00
2022-09-12T08:05:21.555Z,216.00
2022-09-12T08:06:21.551Z,216.00
2022-09-12T08:07:21.532Z,216.00
2022-09-12T08:08:21.676Z,212.00
2022-09-12T08:09:21.499Z,212.00
2022-09-12T08:10:21.525Z,204.00
2022-09-12T08:11:21.492Z,192.00
2022-09-12T08:12:21.460Z,212.00
2022-09-12T08:13:21.438Z,208.00
2022-09-12T08:14:21.572Z,232.00
2022-09-12T08:15:21.448Z,220.00
2022-09-12T08:16:21.408Z,236.00
2022-09-12T08:17:21.401Z,240.00
2022-09-12T08:18:21.376Z,248.00
2022-09-12T08:19:21.368Z,248.00
2022-09-12T08:20:25.297Z,248.00
2022-09-12T08:21:22.623Z,252.00
2022-09-12T08:22:21.336Z,256.00
2022-09-12T08:23:21.343Z,256.00
2022-09-12T08:24:21.285Z,260.00
2022-09-12T08:25:21.277Z,264.00
2022-09-12T08:26:21.582Z,268.00
2022-09-12T08:27:21.300Z,276.00
2022-09-12T08:28:21.262Z,280.00
2022-09-12T08:29:21.216Z,280.00
2022-09-12T08:30:21.254Z,280.00
2022-09-12T08:31:21.196Z,280.00
2022-09-12T08:32:21.518Z,284.00
2022-09-12T08:33:21.175Z,284.00
2022-09-12T08:34:21.155Z,288.00
2022-09-12T08:35:21.147Z,292.00
2022-09-12T08:36:21.138Z,296.00
2022-09-12T08:37:21.463Z,300.00
2022-09-12T08:38:21.279Z,300.00
2022-09-12T08:39:21.095Z,300.00
2022-09-12T08:40:21.128Z,300.00
2022-09-12T08:41:21.073Z,308.00
2022-09-12T08:42:21.084Z,308.00
2022-09-12T08:43:21.050Z,300.00
2022-09-12T08:44:21.301Z,288.00
2022-09-12T08:45:21.011Z,296.00
2022-09-12T08:46:21.111Z,304.00
2022-09-12T08:47:20.998Z,312.00
2022-09-12T08:48:21.006Z,316.00
2022-09-12T08:49:21.054Z,316.00
2022-09-12T08:50:21.172Z,316.00
2022-09-12T08:51:21.002Z,316.00
2022-09-12T08:52:20.947Z,316.00
2022-09-12T08:53:20.958Z,316.00
2022-09-12T08:54:20.927Z,320.00
2022-09-12T08:55:20.898Z,320.00
2022-09-12T08:56:20.985Z,280.00
2022-09-12T08:57:21.782Z,284.00
2022-09-12T08:58:20.861Z,280.00
2022-09-12T08:59:20.826Z,280.00
2022-09-12T09:00:20.800Z,280.00
2022-09-12T09:01:20.893Z,332.00
2022-09-12T09:02:20.967Z,300.00
2022-09-12T09:03:20.779Z,316.00
2022-09-12T09:04:20.779Z,280.00
2022-09-12T09:05:20.790Z,284.00
2022-09-12T09:06:20.786Z,288.00
2022-09-12T09:07:20.681Z,280.00
2022-09-12T09:08:20.955Z,268.00
2022-09-12T09:09:20.655Z,260.00
2022-09-12T09:10:20.646Z,260.00
2022-09-12T09:11:20.652Z,264.00
2022-09-12T09:12:20.624Z,264.00
2022-09-12T09:13:20.593Z,256.00
2022-09-12T09:14:20.896Z,264.00
2022-09-12T09:15:20.578Z,264.00
2022-09-12T09:16:20.656Z,268.00
2022-09-12T09:17:20.550Z,276.00
2022-09-12T09:18:20.527Z,280.00
2022-09-12T09:19:20.530Z,264.00
2022-09-12T09:20:21.143Z,268.00
2022-09-12T09:21:20.503Z,272.00
2022-09-12T09:22:20.482Z,272.00
2022-09-12T09:23:20.543Z,264.00
2022-09-12T09:24:20.457Z,268.00
2022-09-12T09:25:22.921Z,280.00
2022-09-12T09:26:20.790Z,276.00
2022-09-12T09:27:39.218Z,276.00
2022-09-12T09:28:21.385Z,276.00
2022-09-12T09:29:20.392Z,280.00
2022-09-12T09:30:20.358Z,288.00
2022-09-12T09:31:20.424Z,276.00
2022-09-12T09:32:20.506Z,284.00
2022-09-12T09:33:20.329Z,276.00
2022-09-12T09:34:20.307Z,268.00
2022-09-12T09:35:20.291Z,272.00
2022-09-12T09:36:20.285Z,268.00
2022-09-12T09:37:20.286Z,280.00
2022-09-12T09:38:20.501Z,276.00
2022-09-12T09:39:20.246Z,280.00
2022-09-12T09:40:20.257Z,280.00
2022-09-12T09:41:20.226Z,272.00
2022-09-12T09:42:20.193Z,272.00
2022-09-12T09:43:20.199Z,288.00
2022-09-12T09:44:20.354Z,292.00
2022-09-12T09:45:20.152Z,288.00
2022-09-12T09:46:20.212Z,292.00
2022-09-12T09:47:20.132Z,300.00
2022-09-12T09:48:20.119Z,292.00
2022-09-12T09:49:20.101Z,292.00
2022-09-12T09:50:20.476Z,292.00
2022-09-12T09:51:20.068Z,300.00
2022-09-12T09:52:20.073Z,308.00
2022-09-12T09:53:20.047Z,296.00
2022-09-12T09:54:20.022Z,296.00
2022-09-12T09:55:20.031Z,304.00
2022-09-12T09:56:23.175Z,304.00
2022-09-12T09:57:19.987Z,304.00
2022-09-12T09:58:20.004Z,296.00
2022-09-12T09:59:19.999Z,304.00
2022-09-12T10:00:19.992Z,300.00
2022-09-12T10:01:20.082Z,296.00
2022-09-12T10:02:23.778Z,284.00
2022-09-12T10:03:19.908Z,304.00
2022-09-12T10:04:19.891Z,296.00
2022-09-12T10:05:19.889Z,296.00
2022-09-12T10:06:19.866Z,292.00
2022-09-12T10:07:19.877Z,292.00
2022-09-12T10:08:20.157Z,292.00
2022-09-12T10:09:19.825Z,284.00
2022-09-12T10:10:19.820Z,248.00
2022-09-12T10:11:19.792Z,240.00
2022-09-12T10:12:19.781Z,300.00
2022-09-12T10:13:19.777Z,296.00
2022-09-12T10:14:19.939Z,296.00
2022-09-12T10:15:19.733Z,284.00
2022-09-12T10:16:19.770Z,264.00
2022-09-12T10:17:19.715Z,256.00
2022-09-12T10:18:19.690Z,276.00
2022-09-12T10:19:19.684Z,280.00
2022-09-12T10:20:22.006Z,280.00
2022-09-12T10:21:19.673Z,284.00
2022-09-12T10:22:19.653Z,260.00
2022-09-12T10:23:19.676Z,244.00
2022-09-12T10:24:19.611Z,264.00
2022-09-12T10:25:19.763Z,288.00
2022-09-12T10:26:19.714Z,280.00
2022-09-12T10:27:19.571Z,284.00
2022-09-12T10:28:19.571Z,288.00
2022-09-12T10:29:19.535Z,292.00
2022-09-12T10:30:19.531Z,292.00
2022-09-12T10:31:19.744Z,284.00
2022-09-12T10:32:19.609Z,280.00
2022-09-12T10:33:19.481Z,276.00
2022-09-12T10:34:19.476Z,280.00
2022-09-12T10:35:19.472Z,280.00
2022-09-12T10:36:19.446Z,280.00
2022-09-12T10:37:19.429Z,280.00
2022-09-12T10:38:19.631Z,276.00
2022-09-12T10:39:19.411Z,272.00
2022-09-12T10:40:19.415Z,280.00
2022-09-12T10:41:19.375Z,240.00
2022-09-12T10:42:23.301Z,236.00
2022-09-12T10:43:19.346Z,252.00
2022-09-12T10:44:19.452Z,280.00
2022-09-12T10:45:19.307Z,284.00
2022-09-12T10:46:19.402Z,272.00
2022-09-12T10:47:19.311Z,276.00
2022-09-12T10:48:19.275Z,268.00
2022-09-12T10:49:19.245Z,260.00
2022-09-12T10:50:22.797Z,260.00
2022-09-12T10:51:19.232Z,248.00
2022-09-12T10:52:19.214Z,264.00
2022-09-12T10:53:19.224Z,284.00
2022-09-12T10:54:19.209Z,284.00
2022-09-12T10:55:19.179Z,264.00
2022-09-12T10:56:19.419Z,280.00
2022-09-12T10:57:19.162Z,288.00
2022-09-12T10:58:19.143Z,284.00
2022-09-12T10:59:20.240Z,280.00
2022-09-12T11:00:19.113Z,272.00
2022-09-12T11:01:19.174Z,280.00
2022-09-12T11:02:19.325Z,272.00
2022-09-12T11:03:19.071Z,276.00
2022-09-12T11:04:19.053Z,272.00
2022-09-12T11:05:22.609Z,272.00
2022-09-12T11:06:19.038Z,272.00
2022-09-12T11:07:19.007Z,268.00
2022-09-12T11:08:19.280Z,268.00
2022-09-12T11:09:18.990Z,268.00
2022-09-12T11:10:18.984Z,260.00
2022-09-12T11:11:18.976Z,264.00
2022-09-12T11:12:18.953Z,268.00
2022-09-12T11:13:18.931Z,268.00
2022-09-12T11:14:19.032Z,264.00
2022-09-12T11:15:18.905Z,264.00
2022-09-12T11:16:18.932Z,264.00
2022-09-12T11:17:18.867Z,268.00
2022-09-12T11:18:19.026Z,264.00
2022-09-12T11:19:18.850Z,256.00
2022-09-12T11:20:19.158Z,256.00
2022-09-12T11:21:18.824Z,256.00
2022-09-12T11:22:18.824Z,236.00
2022-09-12T11:23:18.849Z,244.00
2022-09-12T11:24:18.794Z,252.00
2022-09-12T11:25:18.776Z,240.00
2022-09-12T11:26:19.015Z,236.00
2022-09-12T11:27:18.735Z,236.00
2022-09-12T11:28:18.787Z,236.00
2022-09-12T11:29:18.793Z,236.00
2022-09-12T11:30:18.726Z,232.00
2022-09-12T11:31:18.794Z,232.00
2022-09-12T11:32:18.883Z,228.00
2022-09-12T11:33:18.815Z,228.00
2022-09-12T11:34:18.646Z,228.00
2022-09-12T11:35:18.640Z,228.00
2022-09-12T11:36:18.623Z,232.00
2022-09-12T11:37:18.606Z,236.00
2022-09-12T11:38:18.640Z,204.00
2022-09-12T11:39:18.670Z,224.00
2022-09-12T11:40:18.657Z,228.00
2022-09-12T11:41:18.562Z,224.00
2022-09-12T11:42:18.543Z,228.00
2022-09-12T11:43:18.553Z,228.00
2022-09-12T11:44:18.561Z,228.00
2022-09-12T11:45:18.571Z,224.00
2022-09-12T11:46:18.590Z,224.00
2022-09-12T11:47:18.467Z,224.00
2022-09-12T11:48:18.680Z,224.00
2022-09-12T11:49:18.437Z,216.00
2022-09-12T11:50:18.465Z,208.00
2022-09-12T11:51:18.488Z,216.00
2022-09-12T11:52:18.394Z,220.00
2022-09-12T11:53:18.375Z,188.00
2022-09-12T11:54:18.373Z,188.00
2022-09-12T11:55:18.360Z,216.00
2022-09-12T11:56:18.521Z,220.00
2022-09-12T11:57:18.632Z,220.00
2022-09-12T11:58:18.325Z,220.00
2022-09-12T11:59:18.341Z,220.00
2022-09-12T12:00:18.398Z,220.00
2022-09-12T12:01:18.330Z,220.00
2022-09-12T12:02:18.322Z,220.00
2022-09-12T12:03:18.946Z,220.00
2022-09-12T12:04:18.323Z,216.00
2022-09-12T12:05:18.220Z,216.00
2022-09-12T12:06:18.335Z,216.00
2022-09-12T12:07:18.199Z,216.00
2022-09-12T12:08:18.232Z,216.00
2022-09-12T12:09:18.368Z,216.00
2022-09-12T12:10:18.158Z,212.00
2022-09-12T12:11:18.304Z,212.00
2022-09-12T12:12:18.302Z,212.00
2022-09-12T12:13:18.117Z,212.00
2022-09-12T12:14:18.129Z,208.00
2022-09-12T12:15:18.560Z,212.00
2022-09-12T12:16:18.146Z,208.00
2022-09-12T12:17:18.048Z,208.00
2022-09-12T12:18:18.024Z,204.00
2022-09-12T12:19:18.014Z,208.00
2022-09-12T12:20:18.038Z,204.00
2022-09-12T12:21:18.138Z,200.00
2022-09-12T12:22:17.978Z,200.00
2022-09-12T12:23:17.947Z,200.00
2022-09-12T12:24:17.947Z,200.00
2022-09-12T12:25:21.413Z,196.00
2022-09-12T12:26:17.948Z,196.00
2022-09-12T12:27:17.976Z,200.00
2022-09-12T12:28:17.886Z,200.00
2022-09-12T12:29:17.873Z,200.00
2022-09-12T12:30:17.856Z,196.00
2022-09-12T12:31:17.951Z,196.00
2022-09-12T12:32:17.856Z,196.00
2022-09-12T12:33:17.966Z,192.00
2022-09-12T12:34:17.816Z,192.00
2022-09-12T12:35:17.794Z,220.00
2022-09-12T12:36:17.781Z,224.00
2022-09-12T12:37:17.756Z,220.00
2022-09-12T12:38:17.759Z,224.00
2022-09-12T12:39:17.827Z,216.00
2022-09-12T12:40:17.780Z,220.00
2022-09-12T12:41:17.722Z,216.00
2022-09-12T12:42:20.079Z,216.00
2022-09-12T12:43:17.687Z,216.00
2022-09-12T12:44:17.706Z,212.00
2022-09-12T12:45:17.722Z,216.00
2022-09-12T12:46:17.666Z,216.00
2022-09-12T12:47:17.645Z,208.00
2022-09-12T12:48:17.612Z,212.00
2022-09-12T12:49:17.593Z,208.00